createdAt,value
2024-03-15T00:01:18.109Z,55.66
2024-03-15T00:03:44.920Z,55.03
2024-03-15T00:06:14.876Z,56.45
2024-03-15T00:08:41.624Z,55.90
2024-03-15T00:11:10.380Z,56.47
2024-03-15T00:13:37.434Z,56.26
2024-03-15T00:16:05.325Z,56.90
2024-03-15T00:18:35.212Z,56.68
2024-03-15T00:21:02.292Z,56.16
2024-03-15T00:23:29.058Z,56.80
2024-03-15T00:25:56.516Z,56.13
2024-03-15T00:28:23.260Z,55.53
2024-03-15T00:30:51.121Z,55.82
2024-03-15T00:33:18.076Z,55.23
2024-03-15T00:35:44.917Z,56.23
2024-03-15T00:38:12.014Z,55.72
2024-03-15T00:40:38.748Z,55.73
2024-03-15T00:43:05.440Z,55.16
2024-03-15T00:45:32.157Z,55.31
2024-03-15T00:48:03.170Z,55.49
2024-03-15T00:50:30.913Z,55.95
2024-03-15T00:52:58.687Z,55.84
2024-03-15T00:55:28.987Z,56.03
2024-03-15T00:57:55.829Z,55.72
2024-03-15T01:00:22.992Z,55.50
2024-03-15T01:02:50.073Z,55.36
2024-03-15T01:05:16.886Z,55.42
2024-03-15T01:07:43.744Z,55.63
2024-03-15T01:10:10.544Z,55.52
2024-03-15T01:12:37.278Z,55.26
2024-03-15T01:15:04.340Z,55.61
2024-03-15T01:17:31.142Z,54.91
2024-03-15T01:19:58.832Z,55.31
2024-03-15T01:22:25.624Z,55.79
2024-03-15T01:24:53.489Z,55.11
2024-03-15T01:27:20.289Z,55.62
2024-03-15T01:29:48.041Z,55.66
2024-03-15T01:32:14.959Z,55.27
2024-03-15T01:34:41.649Z,55.19
2024-03-15T01:37:08.433Z,55.57
2024-03-15T01:39:35.105Z,55.45
2024-03-15T01:42:02.417Z,55.54
2024-03-15T01:44:53.006Z,55.57
2024-03-15T01:47:27.523Z,55.07
2024-03-15T01:49:55.912Z,55.82
2024-03-15T01:52:23.563Z,55.48
2024-03-15T01:54:50.331Z,56.05
2024-03-15T01:57:19.112Z,56.19
2024-03-15T01:59:48.968Z,55.61
2024-03-15T02:02:15.693Z,54.92
2024-03-15T02:04:43.176Z,55.48
2024-03-15T02:07:09.843Z,55.93
2024-03-15T02:09:36.703Z,55.74
2024-03-15T02:12:03.535Z,56.07
2024-03-15T02:14:30.234Z,56.24
2024-03-15T02:16:57.781Z,56.53
2024-03-15T02:19:25.946Z,56.21
2024-03-15T02:21:52.734Z,56.27
2024-03-15T02:24:19.559Z,56.38
2024-03-15T02:26:46.315Z,56.40
2024-03-15T02:29:17.406Z,55.86
2024-03-15T02:31:47.807Z,56.29
2024-03-15T02:34:17.385Z,56.26
2024-03-15T02:36:44.834Z,56.18
2024-03-15T02:39:17.511Z,56.62
2024-03-15T02:41:45.236Z,56.65
2024-03-15T02:44:12.627Z,56.67
2024-03-15T02:46:39.370Z,56.62
2024-03-15T02:49:06.067Z,56.58
2024-03-15T02:51:32.825Z,56.26
2024-03-15T02:53:59.556Z,56.21
2024-03-15T02:56:26.388Z,56.44
2024-03-15T02:58:53.116Z,56.34
2024-03-15T03:01:21.336Z,57.27
2024-03-15T03:03:48.164Z,56.87
2024-03-15T03:06:15.046Z,57.05
2024-03-15T03:08:41.758Z,57.33
2024-03-15T03:11:08.582Z,57.16
2024-03-15T03:13:35.329Z,57.02
2024-03-15T03:16:02.374Z,56.93
2024-03-15T03:18:29.701Z,57.08
2024-03-15T03:20:56.940Z,56.58
2024-03-15T03:23:24.201Z,57.07
2024-03-15T03:25:52.986Z,57.26
2024-03-15T03:28:20.066Z,57.23
2024-03-15T03:30:47.704Z,57.02
2024-03-15T03:33:14.638Z,57.20
2024-03-15T03:35:41.600Z,57.54
2024-03-15T03:38:08.303Z,57.50
2024-03-15T03:40:34.964Z,57.11
2024-03-15T03:43:04.490Z,56.87
2024-03-15T03:45:31.631Z,57.05
2024-03-15T03:47:59.172Z,56.63
2024-03-15T03:50:25.949Z,56.91
2024-03-15T03:52:54.057Z,57.14
2024-03-15T03:55:20.880Z,57.11
2024-03-15T03:57:48.335Z,57.10
2024-03-15T04:00:15.510Z,57.17
2024-03-15T04:02:47.019Z,56.70
2024-03-15T04:05:15.946Z,56.88
2024-03-15T04:07:48.949Z,56.24
2024-03-15T04:10:15.968Z,56.82
2024-03-15T04:12:47.323Z,56.58
2024-03-15T04:15:25.372Z,56.83
2024-03-15T04:18:00.960Z,56.62
2024-03-15T04:20:28.643Z,56.70
2024-03-15T04:22:57.462Z,56.61
2024-03-15T04:25:25.108Z,56.74
2024-03-15T04:27:54.648Z,56.68
2024-03-15T04:30:24.050Z,56.58
2024-03-15T04:32:51.768Z,56.38
2024-03-15T04:35:19.282Z,56.49
2024-03-15T04:37:46.890Z,56.12
2024-03-15T04:40:15.775Z,56.79
2024-03-15T04:42:43.140Z,56.77
2024-03-15T04:45:11.263Z,55.83
2024-03-15T04:47:45.548Z,56.80
2024-03-15T04:50:12.581Z,56.12
2024-03-15T04:52:42.392Z,55.98
2024-03-15T04:55:12.637Z,55.76
2024-03-15T04:57:40.406Z,55.69
2024-03-15T05:00:19.673Z,56.14
2024-03-15T05:02:49.552Z,55.62
2024-03-15T05:05:17.624Z,56.07
2024-03-15T05:07:45.329Z,55.71
2024-03-15T05:10:19.404Z,56.36
2024-03-15T05:12:47.143Z,56.02
2024-03-15T05:15:14.856Z,55.94
2024-03-15T05:17:42.586Z,56.38
2024-03-15T05:20:16.171Z,55.63
2024-03-15T05:22:46.383Z,56.18
2024-03-15T05:25:16.668Z,56.06
2024-03-15T05:27:44.383Z,55.67
2024-03-15T05:30:13.213Z,56.27
2024-03-15T05:32:40.631Z,56.02
2024-03-15T05:35:07.731Z,56.23
2024-03-15T05:37:34.443Z,55.51
2024-03-15T05:40:01.220Z,56.09
2024-03-15T05:42:29.338Z,56.29
2024-03-15T05:44:56.125Z,55.71
2024-03-15T05:47:26.090Z,55.43
2024-03-15T05:49:56.040Z,55.67
2024-03-15T05:52:23.189Z,55.76
2024-03-15T05:54:50.055Z,55.77
2024-03-15T05:57:16.797Z,55.30
2024-03-15T05:59:43.578Z,54.96
2024-03-15T06:02:10.553Z,54.84
2024-03-15T06:04:37.261Z,54.90
2024-03-15T06:07:04.151Z,55.43
2024-03-15T06:09:31.224Z,55.43
2024-03-15T06:11:58.662Z,54.73
2024-03-15T06:14:26.545Z,54.57
2024-03-15T06:16:53.472Z,54.65
2024-03-15T06:19:20.785Z,54.60
2024-03-15T06:21:49.765Z,54.36
2024-03-15T06:24:20.738Z,54.68
2024-03-15T06:26:57.074Z,54.07
2024-03-15T06:29:28.549Z,54.10
2024-03-15T06:31:55.488Z,54.28
2024-03-15T06:34:23.562Z,54.24
2024-03-15T06:36:55.417Z,54.02
2024-03-15T06:39:37.411Z,54.18
2024-03-15T06:42:22.037Z,54.24
2024-03-15T06:44:52.231Z,54.13
2024-03-15T06:47:19.478Z,53.96
2024-03-15T06:49:49.914Z,53.66
2024-03-15T06:52:35.119Z,54.24
2024-03-15T06:55:06.096Z,54.33
2024-03-15T06:57:34.411Z,54.30
2024-03-15T07:00:15.696Z,54.05
2024-03-15T07:02:44.451Z,54.27
2024-03-15T07:05:15.645Z,54.18
2024-03-15T07:07:43.123Z,53.76
2024-03-15T07:10:15.472Z,53.73
2024-03-15T07:12:43.085Z,53.80
2024-03-15T07:15:10.869Z,53.11
2024-03-15T07:17:38.583Z,53.08
2024-03-15T07:20:09.440Z,53.44
2024-03-15T07:25:07.822Z,53.14
2024-03-15T07:27:35.190Z,53.57
2024-03-15T07:30:02.301Z,53.13
2024-03-15T07:32:32.019Z,52.91
2024-03-15T07:34:58.737Z,52.92
2024-03-15T07:37:25.599Z,52.76
2024-03-15T07:39:56.416Z,53.41
2024-03-15T07:42:23.795Z,52.95
2024-03-15T07:44:50.954Z,53.18
2024-03-15T07:47:18.989Z,52.87
2024-03-15T07:49:46.236Z,52.88
2024-03-15T07:52:13.673Z,52.88
2024-03-15T07:54:41.363Z,53.00
2024-03-15T07:57:10.360Z,52.91
2024-03-15T07:59:37.415Z,53.27
2024-03-15T08:02:04.954Z,52.90
2024-03-15T08:04:34.079Z,52.83
2024-03-15T08:07:01.989Z,52.23
2024-03-15T08:09:28.806Z,52.52
2024-03-15T08:11:55.669Z,52.35
2024-03-15T08:14:22.904Z,51.96
2024-03-15T08:16:49.911Z,52.12
2024-03-15T08:19:16.760Z,52.24
2024-03-15T08:21:45.120Z,52.53
2024-03-15T08:24:12.095Z,52.77
2024-03-15T08:26:41.051Z,51.93
2024-03-15T08:29:10.354Z,52.59
2024-03-15T08:31:37.429Z,52.56
2024-03-15T08:34:05.459Z,52.83
2024-03-15T08:36:38.583Z,51.82
2024-03-15T08:39:06.617Z,51.84
2024-03-15T08:41:33.426Z,51.96
2024-03-15T08:44:00.400Z,52.15
2024-03-15T08:46:29.390Z,51.93
2024-03-15T08:48:56.563Z,51.82
2024-03-15T08:51:24.544Z,51.26
2024-03-15T08:53:51.865Z,51.20
2024-03-15T08:56:20.068Z,51.34
2024-03-15T08:58:47.996Z,51.19
2024-03-15T09:01:14.843Z,51.52
2024-03-15T09:03:42.842Z,51.39
2024-03-15T09:06:11.268Z,50.87
2024-03-15T09:08:38.082Z,50.91
2024-03-15T09:11:04.856Z,50.99
2024-03-15T09:13:34.249Z,50.76
2024-03-15T09:16:03.451Z,52.26
2024-03-15T09:18:30.583Z,50.77
2024-03-15T09:20:58.198Z,50.58
2024-03-15T09:23:25.613Z,50.48
2024-03-15T09:25:52.592Z,51.05
2024-03-15T09:28:20.357Z,50.76
2024-03-15T09:30:58.407Z,50.50
2024-03-15T09:33:36.158Z,50.82
2024-03-15T09:36:06.403Z,50.23
2024-03-15T09:38:34.163Z,50.34
2024-03-15T09:41:01.205Z,49.76
2024-03-15T09:43:28.267Z,50.21
2024-03-15T09:45:57.910Z,50.08
2024-03-15T09:48:25.471Z,49.92
2024-03-15T09:50:57.872Z,49.81
2024-03-15T09:53:25.632Z,49.94
2024-03-15T09:55:54.784Z,49.64
2024-03-15T09:58:24.793Z,49.07
2024-03-15T10:00:52.220Z,49.33
2024-03-15T10:03:19.681Z,48.87
2024-03-15T10:05:46.765Z,49.42
2024-03-15T10:08:17.315Z,48.56
2024-03-15T10:10:45.925Z,48.83
2024-03-15T10:13:15.679Z,49.01
2024-03-15T10:15:47.327Z,49.53
2024-03-15T10:18:14.620Z,49.32
2024-03-15T10:20:41.848Z,49.30
2024-03-15T10:23:11.742Z,48.80
2024-03-15T10:25:39.159Z,48.44
2024-03-15T10:28:12.390Z,48.47
2024-03-15T10:30:41.251Z,47.90
2024-03-15T10:33:09.486Z,48.42
2024-03-15T10:35:36.956Z,48.09
2024-03-15T10:38:05.456Z,47.63
2024-03-15T10:40:35.480Z,47.57
2024-03-15T10:43:03.412Z,47.82
2024-03-15T10:45:30.407Z,47.38
2024-03-15T10:47:59.045Z,47.96
2024-03-15T10:50:29.186Z,47.54
2024-03-15T10:52:58.125Z,46.85
2024-03-15T10:55:27.506Z,46.57
2024-03-15T10:58:06.456Z,48.14
2024-03-15T11:00:34.113Z,46.21
2024-03-15T11:03:20.457Z,47.78
2024-03-15T11:05:48.648Z,45.53
2024-03-15T11:08:17.915Z,45.36
2024-03-15T11:10:56.243Z,46.57
2024-03-15T11:13:27.136Z,43.52
2024-03-15T11:15:54.404Z,43.58
2024-03-15T11:18:21.598Z,44.31
2024-03-15T11:20:57.072Z,45.78
2024-03-15T11:23:26.196Z,43.36
2024-03-15T11:26:08.405Z,45.78
2024-03-15T11:28:39.438Z,45.04
2024-03-15T11:31:17.790Z,46.06
2024-03-15T11:33:44.896Z,42.25
2024-03-15T11:36:14.711Z,41.32
2024-03-15T11:38:46.738Z,42.11
2024-03-15T11:41:14.320Z,38.58
2024-03-15T11:43:41.270Z,38.11
2024-03-15T11:46:09.733Z,38.13
2024-03-15T11:48:36.952Z,38.23
2024-03-15T11:51:04.057Z,37.29
2024-03-15T11:53:35.127Z,37.22
2024-03-15T11:56:03.594Z,36.37
2024-03-15T11:58:30.753Z,36.02
2024-03-15T12:00:57.597Z,35.99
2024-03-15T12:03:26.649Z,35.51
2024-03-15T12:05:55.912Z,36.25
2024-03-15T12:08:26.000Z,35.77
2024-03-15T12:10:54.334Z,35.14
2024-03-15T12:13:26.000Z,37.43
2024-03-15T12:15:54.458Z,35.35
2024-03-15T12:18:23.417Z,35.64
2024-03-15T12:20:51.951Z,36.10
2024-03-15T12:23:23.192Z,37.33
2024-03-15T12:25:50.899Z,36.30
2024-03-15T12:28:19.270Z,37.04
2024-03-15T12:30:47.535Z,37.58
2024-03-15T12:33:14.751Z,36.98
2024-03-15T12:35:42.862Z,37.34
2024-03-15T12:38:12.919Z,38.09
2024-03-15T12:40:45.743Z,37.50
2024-03-15T12:43:13.344Z,37.81
2024-03-15T12:45:42.561Z,37.42
2024-03-15T12:48:13.782Z,37.67
2024-03-15T12:50:41.874Z,37.24
2024-03-15T12:53:17.879Z,38.72
2024-03-15T12:55:44.604Z,37.37
2024-03-15T12:58:11.889Z,38.36
2024-03-15T13:00:39.080Z,38.31
2024-03-15T13:03:06.968Z,37.83
2024-03-15T13:05:35.322Z,38.08
2024-03-15T13:08:02.666Z,38.13
2024-03-15T13:10:30.168Z,38.27
2024-03-15T13:12:57.654Z,38.52
2024-03-15T13:15:24.942Z,38.13
2024-03-15T13:17:54.217Z,38.43
2024-03-15T13:20:23.318Z,38.28
2024-03-15T13:22:57.615Z,39.02
2024-03-15T13:25:34.968Z,39.28
2024-03-15T13:28:09.143Z,39.50
2024-03-15T13:30:38.059Z,39.22
2024-03-15T13:33:07.972Z,39.38
2024-03-15T13:35:38.213Z,39.94
2024-03-15T13:38:05.290Z,39.61
2024-03-15T13:40:32.018Z,39.76
2024-03-15T13:42:58.847Z,40.19
2024-03-15T13:45:27.258Z,40.52
2024-03-15T13:47:56.007Z,40.75
2024-03-15T13:50:23.443Z,40.56
2024-03-15T13:52:56.101Z,40.79
2024-03-15T13:55:23.980Z,40.92
2024-03-15T13:57:51.083Z,41.85
2024-03-15T14:00:34.313Z,41.97
2024-03-15T14:03:03.708Z,41.54
2024-03-15T14:05:40.175Z,41.26
2024-03-15T14:08:11.220Z,41.69
2024-03-15T14:10:42.115Z,41.86
2024-03-15T14:13:10.109Z,41.45
2024-03-15T14:15:40.530Z,42.76
2024-03-15T14:18:10.056Z,42.27
2024-03-15T14:20:45.769Z,42.57
2024-03-15T14:23:13.781Z,42.91
2024-03-15T14:25:41.080Z,43.81
2024-03-15T14:28:08.686Z,43.14
2024-03-15T14:30:37.587Z,43.53
2024-03-15T14:33:08.743Z,43.51
2024-03-15T14:35:36.123Z,44.01
2024-03-15T14:38:09.540Z,44.60
2024-03-15T14:40:39.298Z,44.61
2024-03-15T14:43:08.837Z,44.81
2024-03-15T14:45:37.229Z,44.54
2024-03-15T14:48:10.343Z,44.61
2024-03-15T14:50:41.305Z,45.04
2024-03-15T14:53:08.795Z,45.21
2024-03-15T14:55:36.658Z,45.10
2024-03-15T14:58:05.602Z,45.01
2024-03-15T15:00:33.454Z,45.29
2024-03-15T15:03:01.137Z,45.81
2024-03-15T15:05:28.369Z,45.78
2024-03-15T15:08:00.519Z,46.34
2024-03-15T15:10:29.197Z,46.24
2024-03-15T15:12:59.476Z,46.59
2024-03-15T15:15:28.313Z,47.03
2024-03-15T15:17:55.980Z,47.27
2024-03-15T15:20:23.005Z,47.38
2024-03-15T15:22:51.464Z,47.45
2024-03-15T15:25:21.866Z,47.53
2024-03-15T15:27:50.653Z,47.98
2024-03-15T15:30:19.278Z,48.38
2024-03-15T15:32:48.501Z,48.74
2024-03-15T15:35:16.983Z,48.65
2024-03-15T15:37:44.648Z,48.89
2024-03-15T15:40:19.386Z,49.17
2024-03-15T15:42:47.883Z,49.79
2024-03-15T15:45:16.022Z,49.73
2024-03-15T15:47:43.442Z,49.44
2024-03-15T15:50:20.060Z,50.42
2024-03-15T15:52:50.367Z,49.66
2024-03-15T15:55:18.148Z,50.24
2024-03-15T15:57:45.243Z,50.65
2024-03-15T16:00:15.770Z,50.56
2024-03-15T16:02:43.459Z,51.20
2024-03-15T16:05:11.024Z,51.08
2024-03-15T16:07:38.248Z,51.43
2024-03-15T16:10:05.368Z,51.78
2024-03-15T16:12:32.655Z,51.78
2024-03-15T16:15:02.356Z,52.24
2024-03-15T16:17:30.141Z,52.24
2024-03-15T16:19:56.911Z,52.83
2024-03-15T16:22:23.772Z,53.21
2024-03-15T16:24:50.614Z,53.52
2024-03-15T16:27:17.374Z,53.35
2024-03-15T16:29:44.123Z,53.63
2024-03-15T16:32:10.904Z,53.58
2024-03-15T16:34:38.140Z,54.33
2024-03-15T16:37:08.323Z,54.12
2024-03-15T16:39:35.361Z,54.86
2024-03-15T16:42:02.072Z,54.67
2024-03-15T16:44:28.837Z,54.81
2024-03-15T16:46:56.221Z,55.07
2024-03-15T16:49:23.024Z,54.88
2024-03-15T16:51:52.019Z,54.86
2024-03-15T16:54:19.286Z,55.04
2024-03-15T16:56:46.527Z,54.68
2024-03-15T16:59:13.476Z,55.44
2024-03-15T17:01:40.823Z,55.64
2024-03-15T17:04:11.591Z,55.87
2024-03-15T17:06:42.345Z,54.94
2024-03-15T17:09:14.407Z,55.85
2024-03-15T17:11:41.753Z,55.91
2024-03-15T17:14:08.703Z,55.85
2024-03-15T17:16:35.460Z,55.82
2024-03-15T17:19:04.264Z,55.92
2024-03-15T17:21:31.473Z,55.78
2024-03-15T17:23:58.248Z,55.95
2024-03-15T17:26:24.956Z,55.97
2024-03-15T17:28:51.715Z,56.16
2024-03-15T17:31:18.425Z,56.58
2024-03-15T17:33:45.876Z,56.31
2024-03-15T17:36:12.953Z,56.58
2024-03-15T17:38:40.441Z,56.65
2024-03-15T17:41:07.289Z,56.80
2024-03-15T17:43:34.267Z,56.94
2024-03-15T17:46:01.015Z,56.61
2024-03-15T17:48:28.603Z,57.20
2024-03-15T17:50:55.757Z,57.43
2024-03-15T17:53:22.541Z,57.33
2024-03-15T17:55:49.195Z,57.63
2024-03-15T17:58:16.006Z,56.97
2024-03-15T18:00:42.847Z,57.28
2024-03-15T18:03:09.825Z,57.49
2024-03-15T18:05:37.792Z,57.64
2024-03-15T18:08:05.266Z,57.46
2024-03-15T18:10:32.108Z,57.50
2024-03-15T18:12:58.933Z,58.11
2024-03-15T18:15:26.115Z,57.84
2024-03-15T18:17:53.089Z,58.15
2024-03-15T18:20:20.084Z,58.28
2024-03-15T18:22:46.872Z,58.37
2024-03-15T18:25:13.995Z,57.87
2024-03-15T18:27:40.855Z,58.51
2024-03-15T18:30:09.898Z,58.57
2024-03-15T18:32:37.785Z,58.93
2024-03-15T18:35:05.271Z,59.03
2024-03-15T18:37:32.145Z,58.70
2024-03-15T18:39:59.295Z,58.50
2024-03-15T18:42:26.883Z,59.16
2024-03-15T18:44:53.742Z,58.38
2024-03-15T18:47:20.404Z,59.56
2024-03-15T18:49:48.641Z,58.59
2024-03-15T18:52:16.800Z,59.23
2024-03-15T18:54:45.071Z,59.27
2024-03-15T18:57:14.302Z,59.20
2024-03-15T18:59:42.880Z,59.12
2024-03-15T19:02:09.681Z,59.45
2024-03-15T19:04:36.555Z,59.32
2024-03-15T19:07:03.412Z,58.82
2024-03-15T19:09:30.257Z,59.49
2024-03-15T19:11:56.989Z,59.66
2024-03-15T19:14:25.582Z,59.08
2024-03-15T19:16:54.153Z,59.26
2024-03-15T19:19:21.225Z,59.29
2024-03-15T19:21:48.013Z,59.55
2024-03-15T19:24:14.688Z,59.77
2024-03-15T19:26:41.369Z,59.69
2024-03-15T19:29:08.791Z,59.76
2024-03-15T19:31:35.813Z,60.01
2024-03-15T19:34:02.587Z,60.48
2024-03-15T19:36:29.338Z,59.89
2024-03-15T19:38:56.714Z,60.52
2024-03-15T19:41:23.740Z,60.18
2024-03-15T19:43:50.682Z,60.62
2024-03-15T19:46:17.346Z,60.40
2024-03-15T19:48:44.999Z,60.58
2024-03-15T19:51:11.768Z,60.68
2024-03-15T19:53:38.514Z,60.48
2024-03-15T19:56:05.972Z,60.54
2024-03-15T19:58:32.679Z,60.54
2024-03-15T20:00:59.896Z,60.71
2024-03-15T20:03:26.828Z,60.67
2024-03-15T20:05:56.707Z,60.67
2024-03-15T20:08:23.899Z,56.97
2024-03-15T20:10:52.592Z,60.58
2024-03-15T20:13:19.454Z,60.81
2024-03-15T20:15:46.335Z,60.43
2024-03-15T20:18:13.419Z,60.46
2024-03-15T20:20:40.990Z,60.93
2024-03-15T20:23:08.092Z,61.06
2024-03-15T20:25:34.888Z,61.14
2024-03-15T20:28:04.597Z,61.02
2024-03-15T20:30:32.571Z,61.00
2024-03-15T20:33:00.580Z,61.12
2024-03-15T20:35:29.397Z,61.54
2024-03-15T20:37:57.829Z,61.15
2024-03-15T20:40:28.187Z,61.08
2024-03-15T20:42:56.316Z,61.47
2024-03-15T20:45:23.956Z,61.43
2024-03-15T20:47:51.859Z,61.37
2024-03-15T20:50:21.088Z,61.35
2024-03-15T20:52:48.397Z,61.76
2024-03-15T20:55:19.961Z,61.79
2024-03-15T20:57:50.937Z,61.24
2024-03-15T21:00:22.761Z,61.66
2024-03-15T21:02:53.282Z,62.16
2024-03-15T21:05:20.378Z,61.70
2024-03-15T21:07:47.130Z,62.08
2024-03-15T21:10:13.962Z,62.10
2024-03-15T21:12:40.736Z,62.23
2024-03-15T21:15:09.499Z,61.79
2024-03-15T21:17:38.258Z,61.95
2024-03-15T21:20:16.854Z,61.92
2024-03-15T21:22:44.186Z,61.75
2024-03-15T21:25:11.804Z,62.09
2024-03-15T21:27:39.438Z,61.98
2024-03-15T21:30:07.191Z,61.81
2024-03-15T21:32:34.484Z,62.13
2024-03-15T21:35:01.755Z,62.03
2024-03-15T21:37:28.521Z,62.06
2024-03-15T21:39:55.557Z,62.11
2024-03-15T21:42:24.036Z,62.06
2024-03-15T21:44:52.182Z,62.58
2024-03-15T21:47:20.419Z,62.05
2024-03-15T21:49:51.155Z,61.82
2024-03-15T21:52:18.953Z,62.36
2024-03-15T21:54:48.917Z,61.68
2024-03-15T21:57:15.806Z,62.67
2024-03-15T21:59:46.181Z,62.63
2024-03-15T22:02:14.524Z,62.66
2024-03-15T22:04:41.574Z,62.69
2024-03-15T22:07:09.321Z,62.09
2024-03-15T22:09:36.509Z,62.53
2024-03-15T22:12:03.796Z,62.31
2024-03-15T22:14:30.765Z,62.68
2024-03-15T22:16:57.542Z,62.76
2024-03-15T22:19:24.287Z,62.26
2024-03-15T22:21:51.251Z,62.47
2024-03-15T22:24:18.237Z,63.05
2024-03-15T22:26:44.966Z,62.51
2024-03-15T22:29:12.793Z,62.86
2024-03-15T22:31:40.013Z,62.57
2024-03-15T22:34:06.770Z,62.91
2024-03-15T22:36:33.668Z,62.82
2024-03-15T22:39:00.697Z,62.83
2024-03-15T22:41:28.921Z,62.86
2024-03-15T22:43:57.343Z,63.07
2024-03-15T22:46:24.092Z,63.00
2024-03-15T22:48:50.965Z,63.04
2024-03-15T22:51:17.902Z,62.84
2024-03-15T22:53:44.593Z,63.09
2024-03-15T22:56:11.249Z,62.98
2024-03-15T22:58:38.512Z,63.02
2024-03-15T23:01:06.703Z,62.92
2024-03-15T23:03:36.016Z,62.69
2024-03-15T23:06:06.379Z,62.43
2024-03-15T23:08:33.142Z,62.71
2024-03-15T23:11:00.236Z,63.22
2024-03-15T23:13:27.299Z,62.56
2024-03-15T23:15:55.835Z,63.05
2024-03-15T23:18:22.855Z,62.97
2024-03-15T23:20:51.018Z,63.29
2024-03-15T23:23:17.812Z,62.79
2024-03-15T23:25:45.971Z,62.64
2024-03-15T23:28:13.353Z,62.46
2024-03-15T23:30:40.799Z,62.55
2024-03-15T23:33:07.938Z,62.90
2024-03-15T23:35:34.773Z,63.03
2024-03-15T23:38:01.698Z,62.93
2024-03-15T23:40:28.500Z,63.07
2024-03-15T23:42:55.307Z,62.56
2024-03-15T23:45:22.063Z,62.98
2024-03-15T23:47:48.988Z,63.13
2024-03-15T23:50:15.912Z,63.21
2024-03-15T23:52:42.615Z,63.24
2024-03-15T23:55:09.727Z,62.94
2024-03-15T23:57:37.074Z,63.26
